aviador You're here:

KLSE Decoded Metar

LA CROSSE in WI, USA
Report Time2017-10-19 07:53:00
UTC Time2017-10-19 08:59:06
Flight Rules vfr VFR
WindCalm
Visibility9999 m
Phenomena:N/A
Clouds:N/A
Expected CloudBase > 2,000 ft AGL from Temp-Dew spread
CeilingNone
Temp08°C (ISA -6)
Dew Point03°C (71% RH)
AAT6.5°C
QNH1018 hPa
Density Alt-95 ft
Elevation653 ft
Report Wrong Elevation
Raw Report
METAR KLSE 190753Z AUTO 00000KT 10SM CLR 08/03 A3005 RMK AO2 SLP172
T00780033=

Extra information for KLSE:More info

Metar Taf Metar & Taf Last 4 Metars F.Rules Stats Wind Profile Meteogram Temp Stats Airport Information Weather charts Add Link Nearby VenuesMetar ALERT Operation Metar Decoded Social comments

AIRNAV info for KLSE